createdAt,value
2023-03-28T00:00:19.757Z,97108.97
2023-03-28T00:02:52.618Z,97102.13
2023-03-28T00:05:25.522Z,97109.53
2023-03-28T00:08:00.282Z,97106.09
2023-03-28T00:10:33.248Z,97109.28
2023-03-28T00:13:06.179Z,97111.34
2023-03-28T00:15:40.342Z,97112.41
2023-03-28T00:18:13.355Z,97116.09
2023-03-28T00:20:46.085Z,97117.16
2023-03-28T00:23:20.528Z,97111.84
2023-03-28T00:25:53.252Z,97114.22
2023-03-28T00:28:26.187Z,97117.09
2023-03-28T00:31:03.228Z,97114.44
2023-03-28T00:33:36.198Z,97112.28
2023-03-28T00:36:10.364Z,97114.69
2023-03-28T00:38:44.725Z,97110.97
2023-03-28T00:41:18.573Z,97111.22
2023-03-28T00:43:52.527Z,97117.31
2023-03-28T00:46:27.801Z,97109.38
2023-03-28T00:49:03.594Z,97105.66
2023-03-28T00:51:38.407Z,97103.75
2023-03-28T00:54:14.480Z,97101.13
2023-03-28T00:56:49.018Z,97106.72
2023-03-28T00:59:23.958Z,97106.47
2023-03-28T01:01:56.853Z,97113.09
2023-03-28T01:04:36.382Z,97120.53
2023-03-28T01:07:09.212Z,97117.63
2023-03-28T01:09:43.605Z,97125.63
2023-03-28T01:12:16.914Z,97129.06
2023-03-28T01:14:49.985Z,97132.78
2023-03-28T01:17:22.860Z,97134.91
2023-03-28T01:20:04.202Z,97146.03
2023-03-28T01:22:56.961Z,97139.16
2023-03-28T01:25:52.379Z,97139.66
2023-03-28T01:28:34.209Z,97142.06
2023-03-28T01:31:22.704Z,97148.38
2023-03-28T01:34:16.449Z,97146.25
2023-03-28T01:37:01.702Z,97151.56
2023-03-28T01:39:42.403Z,97154.44
2023-03-28T01:42:21.450Z,97153.06
2023-03-28T01:44:59.677Z,97153.34
2023-03-28T01:47:36.828Z,97148.00
2023-03-28T01:50:13.962Z,97144.53
2023-03-28T01:52:51.273Z,97145.56
2023-03-28T01:55:25.464Z,97148.97
2023-03-28T01:58:03.335Z,97147.09
2023-03-28T02:00:38.566Z,97141.47
2023-03-28T02:03:15.176Z,97134.53
2023-03-28T02:05:49.973Z,97132.34
2023-03-28T02:08:26.355Z,97136.56
2023-03-28T02:10:59.830Z,97141.03
2023-03-28T02:13:34.824Z,97137.84
2023-03-28T02:16:09.155Z,97136.19
2023-03-28T02:18:44.920Z,97138.03
2023-03-28T02:21:19.818Z,97143.00
2023-03-28T02:23:55.056Z,97137.97
2023-03-28T02:26:28.410Z,97130.22
2023-03-28T02:29:01.590Z,97134.97
2023-03-28T02:31:35.109Z,97135.22
2023-03-28T02:34:08.077Z,97122.44
2023-03-28T02:36:47.852Z,97139.41
2023-03-28T02:39:30.150Z,97128.78
2023-03-28T02:42:08.365Z,97124.78
2023-03-28T02:44:59.948Z,97134.81
2023-03-28T02:47:35.361Z,97130.31
2023-03-28T02:50:18.941Z,97125.53
2023-03-28T02:52:56.036Z,97125.53
2023-03-28T02:55:34.469Z,97126.31
2023-03-28T02:58:10.447Z,97122.88
2023-03-28T03:00:43.567Z,97122.06
2023-03-28T03:03:17.564Z,97118.09
2023-03-28T03:05:50.259Z,97117.88
2023-03-28T03:08:22.987Z,97107.81
2023-03-28T03:10:57.191Z,97115.00
2023-03-28T03:13:29.993Z,97105.72
2023-03-28T03:16:03.459Z,97110.53
2023-03-28T03:18:37.040Z,97110.81
2023-03-28T03:21:10.949Z,97108.69
2023-03-28T03:23:44.002Z,97105.81
2023-03-28T03:26:18.329Z,97110.63
2023-03-28T03:28:51.160Z,97104.78
2023-03-28T03:31:24.485Z,97104.00
2023-03-28T03:33:57.274Z,97106.13
2023-03-28T03:36:31.997Z,97105.91
2023-03-28T03:39:04.790Z,97099.81
2023-03-28T03:41:39.107Z,97092.38
2023-03-28T03:44:11.818Z,97083.16
2023-03-28T03:46:44.848Z,97084.56
2023-03-28T03:49:17.584Z,97092.84
2023-03-28T03:51:50.310Z,97095.03
2023-03-28T03:54:23.212Z,97087.44
2023-03-28T03:56:57.467Z,97092.03
2023-03-28T03:59:30.266Z,97102.97
2023-03-28T04:02:03.351Z,97107.78
2023-03-28T04:04:37.103Z,97100.97
2023-03-28T04:07:09.938Z,97108.66
2023-03-28T04:09:42.712Z,97103.41
2023-03-28T04:12:17.257Z,97110.88
2023-03-28T04:14:49.993Z,97098.72
2023-03-28T04:17:23.553Z,97106.69
2023-03-28T04:19:56.269Z,97102.22
2023-03-28T04:22:30.087Z,97097.78
2023-03-28T04:25:03.077Z,97110.72
2023-03-28T04:27:37.367Z,97109.72
2023-03-28T04:30:11.577Z,97106.81
2023-03-28T04:32:44.664Z,97112.59
2023-03-28T04:35:17.666Z,97117.38
2023-03-28T04:37:50.534Z,97118.44
2023-03-28T04:40:24.738Z,97120.03
2023-03-28T04:42:59.095Z,97116.59
2023-03-28T04:45:31.887Z,97118.97
2023-03-28T04:48:04.844Z,97113.13
2023-03-28T04:50:37.676Z,97116.00
2023-03-28T04:53:10.932Z,97126.59
2023-03-28T04:55:49.087Z,97119.72
2023-03-28T04:58:24.521Z,97118.88
2023-03-28T05:00:57.366Z,97128.66
2023-03-28T05:03:30.247Z,97123.88
2023-03-28T05:06:03.111Z,97140.53
2023-03-28T05:08:36.199Z,97140.50
2023-03-28T05:11:08.984Z,97139.72
2023-03-28T05:13:43.332Z,97142.06
2023-03-28T05:16:16.052Z,97143.38
2023-03-28T05:18:48.896Z,97143.34
2023-03-28T05:21:21.703Z,97152.84
2023-03-28T05:23:54.486Z,97152.31
2023-03-28T05:26:28.298Z,97157.31
2023-03-28T05:29:02.501Z,97157.59
2023-03-28T05:31:35.292Z,97158.09
2023-03-28T05:34:08.396Z,97157.78
2023-03-28T05:36:41.101Z,97170.19
2023-03-28T05:39:15.020Z,97171.25
2023-03-28T05:41:48.084Z,97173.38
2023-03-28T05:44:22.299Z,97175.22
2023-03-28T05:46:55.520Z,97183.94
2023-03-28T05:49:28.403Z,97181.56
2023-03-28T05:52:01.238Z,97182.34
2023-03-28T05:54:34.168Z,97187.38
2023-03-28T05:57:06.956Z,97188.97
2023-03-28T05:59:45.486Z,97191.34
2023-03-28T06:02:19.114Z,97195.56
2023-03-28T06:04:53.989Z,97192.13
2023-03-28T06:07:39.329Z,97195.84
2023-03-28T06:10:15.729Z,97204.09
2023-03-28T06:12:48.375Z,97196.97
2023-03-28T06:15:23.147Z,97204.41
2023-03-28T06:17:56.217Z,97204.47
2023-03-28T06:20:29.173Z,97207.16
2023-03-28T06:23:04.037Z,97205.34
2023-03-28T06:25:38.717Z,97211.19
2023-03-28T06:28:11.761Z,97209.91
2023-03-28T06:30:48.579Z,97213.09
2023-03-28T06:33:21.399Z,97218.69
2023-03-28T06:35:55.404Z,97214.72
2023-03-28T06:38:28.275Z,97216.88
2023-03-28T06:41:01.294Z,97217.41
2023-03-28T06:43:34.158Z,97219.28
2023-03-28T06:46:09.618Z,97216.34
2023-03-28T06:48:42.325Z,97222.69
2023-03-28T06:51:15.351Z,97215.25
2023-03-28T06:53:48.467Z,97212.84
2023-03-28T06:56:21.250Z,97212.03
2023-03-28T06:58:54.090Z,97213.31
2023-03-28T07:01:28.282Z,97210.88
2023-03-28T07:04:02.241Z,97208.41
2023-03-28T07:06:35.523Z,97200.69
2023-03-28T07:09:08.341Z,97209.09
2023-03-28T07:11:41.349Z,97218.31
2023-03-28T07:14:14.430Z,97225.38
2023-03-28T07:16:48.672Z,97227.44
2023-03-28T07:19:22.426Z,97222.28
2023-03-28T07:21:55.274Z,97231.47
2023-03-28T07:24:27.992Z,97230.84
2023-03-28T07:27:14.120Z,97222.22
2023-03-28T07:29:48.909Z,97225.28
2023-03-28T07:32:23.673Z,97237.41
2023-03-28T07:34:56.565Z,97231.22
2023-03-28T07:37:29.371Z,97227.66
2023-03-28T07:40:02.263Z,97231.00
2023-03-28T07:42:35.050Z,97230.06
2023-03-28T07:45:08.435Z,97236.06
2023-03-28T07:47:42.951Z,97229.59
2023-03-28T07:50:15.870Z,97229.19
2023-03-28T07:52:48.952Z,97226.91
2023-03-28T07:55:21.956Z,97237.13
2023-03-28T07:57:55.684Z,97231.34
2023-03-28T08:00:28.404Z,97231.72
2023-03-28T08:03:02.650Z,97237.63
2023-03-28T08:05:37.862Z,97229.69
2023-03-28T08:08:10.826Z,97224.91
2023-03-28T08:10:45.650Z,97234.22
2023-03-28T08:13:18.687Z,97233.38
2023-03-28T08:15:53.697Z,97230.44
2023-03-28T08:18:29.712Z,97223.22
2023-03-28T08:21:05.111Z,97220.63
2023-03-28T08:23:37.952Z,97227.81
2023-03-28T08:26:10.731Z,97217.22
2023-03-28T08:28:43.599Z,97217.03
2023-03-28T08:31:17.368Z,97220.28
2023-03-28T08:33:52.656Z,97221.44
2023-03-28T08:36:27.209Z,97228.44
2023-03-28T08:39:01.843Z,97223.19
2023-03-28T08:41:47.049Z,97219.78
2023-03-28T08:44:28.782Z,97228.69
2023-03-28T08:47:04.869Z,97233.59
2023-03-28T08:49:44.003Z,97238.50
2023-03-28T08:52:18.773Z,97231.19
2023-03-28T08:54:54.371Z,97233.72
2023-03-28T08:57:29.404Z,97233.63
2023-03-28T09:00:09.062Z,97226.06
2023-03-28T09:02:42.355Z,97229.72
2023-03-28T09:05:23.844Z,97222.00
2023-03-28T09:08:01.094Z,97221.81
2023-03-28T09:10:38.735Z,97234.72
2023-03-28T09:13:17.641Z,97233.22
2023-03-28T09:16:09.134Z,97226.28
2023-03-28T09:19:03.689Z,97228.09
2023-03-28T09:21:42.339Z,97223.75
2023-03-28T09:24:22.920Z,97221.19
2023-03-28T09:26:58.623Z,97225.56
2023-03-28T09:29:32.768Z,97221.59
2023-03-28T09:32:07.104Z,97220.50
2023-03-28T09:34:40.877Z,97213.78
2023-03-28T09:37:19.041Z,97221.47
2023-03-28T09:39:53.843Z,97224.06
2023-03-28T09:42:31.480Z,97220.78
2023-03-28T09:45:08.914Z,97223.91
2023-03-28T09:47:43.237Z,97220.94
2023-03-28T09:50:17.265Z,97224.91
2023-03-28T09:52:52.121Z,97212.84
2023-03-28T09:55:26.038Z,97218.34
2023-03-28T09:58:03.032Z,97217.25
2023-03-28T10:00:36.660Z,97214.00
2023-03-28T10:03:23.055Z,97209.13
2023-03-28T10:05:56.205Z,97211.38
2023-03-28T10:08:32.946Z,97195.66
2023-03-28T10:11:07.076Z,97204.63
2023-03-28T10:13:41.725Z,97200.84
2023-03-28T10:16:15.741Z,97196.31
2023-03-28T10:18:48.612Z,97203.81
2023-03-28T10:21:23.267Z,97201.94
2023-03-28T10:24:00.990Z,97203.03
2023-03-28T10:26:33.935Z,97198.81
2023-03-28T10:29:08.399Z,97193.47
2023-03-28T10:31:41.988Z,97187.31
2023-03-28T10:34:25.859Z,97189.50
2023-03-28T10:36:58.599Z,97175.16
2023-03-28T10:39:33.675Z,97168.56
2023-03-28T10:42:06.389Z,97174.19
2023-03-28T10:44:40.696Z,97168.84
2023-03-28T10:47:16.035Z,97163.03
2023-03-28T10:49:50.097Z,97159.56
2023-03-28T10:52:25.393Z,97157.38
2023-03-28T10:55:03.635Z,97165.88
2023-03-28T10:57:41.526Z,97158.03
2023-03-28T11:00:17.387Z,97152.38
2023-03-28T11:02:53.263Z,97152.09
2023-03-28T11:05:34.585Z,97146.16
2023-03-28T11:08:19.400Z,97143.63
2023-03-28T11:10:58.155Z,97143.03
2023-03-28T11:13:34.912Z,97141.78
2023-03-28T11:16:12.625Z,97137.72
2023-03-28T11:18:54.128Z,97130.19
2023-03-28T11:21:31.239Z,97134.63
2023-03-28T11:24:11.204Z,97129.75
2023-03-28T11:26:52.955Z,97134.97
2023-03-28T11:29:42.576Z,97126.63
2023-03-28T11:32:19.380Z,97122.72
2023-03-28T11:34:59.337Z,97117.56
2023-03-28T11:37:35.275Z,97112.06
2023-03-28T11:40:15.465Z,97124.88
2023-03-28T11:42:51.775Z,97116.56
2023-03-28T11:45:42.028Z,97113.28
2023-03-28T11:48:22.802Z,97110.97
2023-03-28T11:50:59.943Z,97111.78
2023-03-28T11:53:34.924Z,97112.91
2023-03-28T11:56:12.488Z,97117.63
2023-03-28T11:58:48.757Z,97105.66
2023-03-28T12:01:22.982Z,97105.16
2023-03-28T12:04:02.076Z,97095.06
2023-03-28T12:06:37.447Z,97102.25
2023-03-28T12:09:14.247Z,97102.09
2023-03-28T12:11:52.217Z,97091.00
2023-03-28T12:14:31.934Z,97086.41
2023-03-28T12:19:42.878Z,97075.28
2023-03-28T12:22:19.674Z,97074.63
2023-03-28T12:24:58.132Z,97071.94
2023-03-28T12:27:39.037Z,97072.94
2023-03-28T12:30:21.394Z,97051.31
2023-03-28T12:32:59.759Z,97042.84
2023-03-28T12:35:36.608Z,97043.19
2023-03-28T12:38:20.070Z,97039.31
2023-03-28T12:40:55.524Z,97028.16
2023-03-28T12:43:30.036Z,97038.13
2023-03-28T12:46:07.473Z,97030.53
2023-03-28T12:48:42.125Z,97020.28
2023-03-28T12:51:16.830Z,97019.84
2023-03-28T12:54:01.633Z,97015.28
2023-03-28T12:56:34.629Z,97017.31
2023-03-28T12:59:36.641Z,97020.66
2023-03-28T13:02:15.117Z,97022.50
2023-03-28T13:04:53.366Z,97031.75
2023-03-28T13:07:29.882Z,97024.94
2023-03-28T13:10:06.402Z,97027.72
2023-03-28T13:12:48.432Z,97023.53
2023-03-28T13:15:29.198Z,97027.13
2023-03-28T13:18:21.379Z,97023.13
2023-03-28T13:20:56.696Z,97024.97
2023-03-28T13:23:34.547Z,97014.94
2023-03-28T13:26:07.966Z,97014.44
2023-03-28T13:28:44.457Z,97006.44
2023-03-28T13:31:21.599Z,96999.44
2023-03-28T13:33:55.375Z,96996.69
2023-03-28T13:36:31.857Z,96990.16
2023-03-28T13:39:09.485Z,96994.00
2023-03-28T13:41:56.117Z,96987.75
2023-03-28T13:44:32.208Z,96989.56
2023-03-28T13:47:05.880Z,96989.16
2023-03-28T13:49:44.348Z,96994.75
2023-03-28T13:52:19.963Z,96978.88
2023-03-28T13:54:55.124Z,96984.47
2023-03-28T13:57:28.294Z,96978.91
2023-03-28T14:00:02.598Z,96976.63
2023-03-28T14:02:38.017Z,96978.56
2023-03-28T14:05:15.492Z,96977.41
2023-03-28T14:07:50.300Z,96972.81
2023-03-28T14:10:28.958Z,96968.94
2023-03-28T14:13:03.792Z,96972.50
2023-03-28T14:15:39.470Z,96969.81
2023-03-28T14:18:15.798Z,96972.28
2023-03-28T14:20:48.704Z,96966.56
2023-03-28T14:23:28.474Z,96947.41
2023-03-28T14:26:01.749Z,96953.69
2023-03-28T14:28:34.590Z,96944.50
2023-03-28T14:31:07.621Z,96935.19
2023-03-28T14:33:41.948Z,96947.41
2023-03-28T14:36:21.160Z,96942.59
2023-03-28T14:38:55.247Z,96942.69
2023-03-28T14:41:29.939Z,96934.59
2023-03-28T14:44:04.145Z,96937.63
2023-03-28T14:46:36.923Z,96937.16
2023-03-28T14:49:14.783Z,96933.97
2023-03-28T14:51:48.704Z,96939.19
2023-03-28T14:54:24.968Z,96928.38
2023-03-28T14:56:59.137Z,96923.75
2023-03-28T14:59:37.146Z,96919.41
2023-03-28T15:02:17.064Z,96924.75
2023-03-28T15:04:51.238Z,96925.78
2023-03-28T15:07:28.137Z,96913.41
2023-03-28T15:10:11.003Z,96912.22
2023-03-28T15:12:46.494Z,96907.91
2023-03-28T15:15:21.781Z,96909.38
2023-03-28T15:17:56.563Z,96907.38
2023-03-28T15:20:31.984Z,96898.56
2023-03-28T15:23:06.961Z,96890.56
2023-03-28T15:25:41.302Z,96890.44
2023-03-28T15:28:16.372Z,96885.25
2023-03-28T15:30:50.894Z,96876.28
2023-03-28T15:33:25.000Z,96878.03
2023-03-28T15:36:05.825Z,96871.44
2023-03-28T15:38:39.469Z,96869.88
2023-03-28T15:41:21.758Z,96877.75
2023-03-28T15:43:58.785Z,96873.97
2023-03-28T15:46:32.528Z,96872.06
2023-03-28T15:49:06.978Z,96865.63
2023-03-28T15:51:49.869Z,96864.81
2023-03-28T15:54:31.497Z,96866.72
2023-03-28T15:57:07.377Z,96865.78
2023-03-28T15:59:42.637Z,96867.53
2023-03-28T16:02:35.285Z,96861.25
2023-03-28T16:05:11.746Z,96859.84
2023-03-28T16:07:48.764Z,96869.97
2023-03-28T16:10:23.093Z,96864.78
2023-03-28T16:12:57.607Z,96861.50
2023-03-28T16:15:31.541Z,96857.06
2023-03-28T16:18:04.301Z,96851.91
2023-03-28T16:20:37.289Z,96847.53
2023-03-28T16:23:11.116Z,96859.97
2023-03-28T16:25:44.104Z,96857.47
2023-03-28T16:28:19.337Z,96862.66
2023-03-28T16:30:53.336Z,96864.06
2023-03-28T16:33:26.087Z,96860.16
2023-03-28T16:35:59.520Z,96866.13
2023-03-28T16:38:32.449Z,96867.84
2023-03-28T16:41:05.838Z,96864.25
2023-03-28T16:43:40.469Z,96866.78
2023-03-28T16:46:13.229Z,96872.59
2023-03-28T16:48:45.932Z,96862.53
2023-03-28T16:51:18.767Z,96865.38
2023-03-28T16:53:51.526Z,96859.56
2023-03-28T16:56:26.962Z,96865.22
2023-03-28T16:59:01.044Z,96864.41
2023-03-28T17:01:33.820Z,96857.19
2023-03-28T17:04:06.990Z,96854.97
2023-03-28T17:06:39.739Z,96856.09
2023-03-28T17:09:12.496Z,96861.59
2023-03-28T17:11:45.289Z,96857.53
2023-03-28T17:14:19.366Z,96851.81
2023-03-28T17:16:52.135Z,96846.16
2023-03-28T17:19:24.800Z,96845.38
2023-03-28T17:21:57.927Z,96841.13
2023-03-28T17:24:31.466Z,96844.44
2023-03-28T17:27:04.363Z,96839.72
2023-03-28T17:29:38.721Z,96837.66
2023-03-28T17:32:11.742Z,96841.47
2023-03-28T17:34:44.567Z,96836.72
2023-03-28T17:37:17.469Z,96837.03
2023-03-28T17:39:50.198Z,96829.31
2023-03-28T17:42:23.221Z,96828.06
2023-03-28T17:44:58.421Z,96827.28
2023-03-28T17:47:31.620Z,96824.63
2023-03-28T17:50:04.683Z,96815.81
2023-03-28T17:52:37.874Z,96811.56
2023-03-28T17:55:10.801Z,96806.50
2023-03-28T17:57:43.530Z,96806.50
2023-03-28T18:00:18.321Z,96808.41
2023-03-28T18:02:51.834Z,96810.28
2023-03-28T18:05:24.622Z,96807.13
2023-03-28T18:07:57.388Z,96805.56
2023-03-28T18:10:30.122Z,96809.03
2023-03-28T18:13:02.818Z,96810.47
2023-03-28T18:15:40.789Z,96814.53
2023-03-28T18:18:13.930Z,96816.44
2023-03-28T18:20:46.882Z,96818.16
2023-03-28T18:23:19.767Z,96819.28
2023-03-28T18:25:53.198Z,96824.63
2023-03-28T18:28:26.328Z,96809.97
2023-03-28T18:31:08.844Z,96798.81
2023-03-28T18:33:43.008Z,96799.59
2023-03-28T18:36:15.806Z,96794.88
2023-03-28T18:38:48.559Z,96782.63
2023-03-28T18:41:22.364Z,96783.72
2023-03-28T18:43:55.723Z,96787.03
2023-03-28T18:46:30.443Z,96783.56
2023-03-28T18:49:03.319Z,96789.53
2023-03-28T18:51:36.677Z,96780.28
2023-03-28T18:54:09.354Z,96787.03
2023-03-28T18:56:42.187Z,96786.53
2023-03-28T18:59:15.067Z,96783.72
2023-03-28T19:01:51.575Z,96775.22
2023-03-28T19:04:26.045Z,96767.22
2023-03-28T19:06:58.829Z,96759.03
2023-03-28T19:09:31.559Z,96754.78
2023-03-28T19:12:04.282Z,96746.31
2023-03-28T19:14:37.138Z,96735.94
2023-03-28T19:17:11.297Z,96736.72
2023-03-28T19:19:44.060Z,96746.31
2023-03-28T19:22:16.721Z,96750.38
2023-03-28T19:24:49.484Z,96750.38
2023-03-28T19:27:22.166Z,96748.81
2023-03-28T19:29:54.860Z,96744.56
2023-03-28T19:32:30.639Z,96743.31
2023-03-28T19:35:03.811Z,96745.97
2023-03-28T19:37:36.789Z,96754.78
2023-03-28T19:40:10.920Z,96748.19
2023-03-28T19:42:44.202Z,96752.75
2023-03-28T19:45:17.382Z,96745.53
2023-03-28T19:47:51.843Z,96755.41
2023-03-28T19:50:24.674Z,96751.66
2023-03-28T19:52:57.373Z,96750.88
2023-03-28T19:55:30.169Z,96751.66
2023-03-28T19:58:04.948Z,96760.75
2023-03-28T20:00:37.643Z,96761.25
2023-03-28T20:03:11.728Z,96763.44
2023-03-28T20:05:44.617Z,96771.75
2023-03-28T20:08:18.364Z,96768.31
2023-03-28T20:10:52.775Z,96783.53
2023-03-28T20:13:25.742Z,96778.50
2023-03-28T20:15:58.563Z,96781.97
2023-03-28T20:18:33.608Z,96782.28
2023-03-28T20:21:07.573Z,96792.97
2023-03-28T20:23:40.406Z,96787.63
2023-03-28T20:26:14.473Z,96788.72
2023-03-28T20:28:50.081Z,96790.94
2023-03-28T20:31:23.729Z,96797.50
2023-03-28T20:33:57.759Z,96793.59
2023-03-28T20:36:32.933Z,96784.00
2023-03-28T20:39:06.100Z,96792.81
2023-03-28T20:41:39.036Z,96775.69
2023-03-28T20:44:15.184Z,96778.38
2023-03-28T20:46:48.987Z,96783.38
2023-03-28T20:49:23.110Z,96789.34
2023-03-28T20:51:55.948Z,96793.59
2023-03-28T20:54:28.714Z,96772.53
2023-03-28T20:57:01.747Z,96759.97
2023-03-28T20:59:34.762Z,96761.38
2023-03-28T21:02:08.195Z,96789.66
2023-03-28T21:04:43.379Z,96783.06
2023-03-28T21:07:16.046Z,96790.28
2023-03-28T21:09:48.794Z,96781.47
2023-03-28T21:12:21.554Z,96787.16
2023-03-28T21:14:55.429Z,96798.94
2023-03-28T21:17:29.152Z,96792.81
2023-03-28T21:20:05.415Z,96801.91
2023-03-28T21:22:38.944Z,96809.63
2023-03-28T21:25:12.004Z,96808.34
2023-03-28T21:27:44.817Z,96808.34
2023-03-28T21:30:18.930Z,96814.16
2023-03-28T21:32:51.644Z,96807.25
2023-03-28T21:35:25.819Z,96798.44
2023-03-28T21:37:58.497Z,96791.22
2023-03-28T21:40:31.194Z,96751.63
2023-03-28T21:43:04.200Z,96729.19
2023-03-28T21:45:37.238Z,96737.63
2023-03-28T21:48:09.953Z,96758.09
2023-03-28T21:50:49.614Z,96768.78
2023-03-28T21:53:22.738Z,96765.16
2023-03-28T21:55:56.347Z,96765.94
2023-03-28T21:58:30.354Z,96768.00
2023-03-28T22:01:04.042Z,96782.63
2023-03-28T22:03:38.114Z,96784.66
2023-03-28T22:06:12.288Z,96775.53
2023-03-28T22:08:46.425Z,96777.59
2023-03-28T22:11:20.150Z,96778.53
2023-03-28T22:14:01.113Z,96760.28
2023-03-28T22:16:34.989Z,96763.13
2023-03-28T22:19:10.009Z,96739.22
2023-03-28T22:21:44.590Z,96728.69
2023-03-28T22:24:17.912Z,96697.84
2023-03-28T22:26:50.717Z,96683.88
2023-03-28T22:29:23.456Z,96673.66
2023-03-28T22:31:56.858Z,96669.88
2023-03-28T22:34:30.430Z,96690.59
2023-03-28T22:37:04.550Z,96699.88
2023-03-28T22:39:38.033Z,96713.41
2023-03-28T22:42:11.823Z,96698.94
2023-03-28T22:44:44.604Z,96713.56
2023-03-28T22:47:18.085Z,96716.69
2023-03-28T22:49:53.919Z,96722.53
2023-03-28T22:52:31.635Z,96724.09
2023-03-28T22:55:04.556Z,96732.25
2023-03-28T22:57:37.561Z,96728.16
2023-03-28T23:00:11.369Z,96721.41
2023-03-28T23:02:44.079Z,96721.88
2023-03-28T23:05:16.955Z,96703.59
2023-03-28T23:07:52.790Z,96685.66
2023-03-28T23:10:25.798Z,96668.19
2023-03-28T23:12:58.591Z,96666.03
2023-03-28T23:15:31.389Z,96655.34
2023-03-28T23:18:04.628Z,96657.69
2023-03-28T23:20:38.371Z,96664.59
2023-03-28T23:23:12.766Z,96661.13
2023-03-28T23:25:47.557Z,96644.75
2023-03-28T23:28:20.441Z,96633.28
2023-03-28T23:30:53.495Z,96626.50
2023-03-28T23:33:26.219Z,96628.72
2023-03-28T23:35:59.022Z,96612.03
2023-03-28T23:38:33.134Z,96610.44
2023-03-28T23:41:06.793Z,96606.34
2023-03-28T23:43:39.573Z,96607.16
2023-03-28T23:46:12.365Z,96613.91
2023-03-28T23:48:45.264Z,96634.69
2023-03-28T23:51:18.611Z,96638.47
2023-03-28T23:53:52.770Z,96636.88
2023-03-28T23:56:25.573Z,96635.47
2023-03-28T23:58:58.341Z,96645.03
